Details for FedEx at EDDK




Go Back


Latest METAR
Local Time

EDDK 201450Z 29007KT 250V320 9999 FEW042 06/M02 Q1017 NOSIG

21/02/2018, 15:51:42

Description
Results
FedEx Logo
Number of Pilots based at EDDK
0 Pilots Based here
Number of FedEx Flights Departed from EDDK
0 Flights Departed
Number of FedEx Flights Arrived at EDDK
0 Flights Arrived
Number of FedEx Schedules Departing from EDDK
30 Schedules
Number of FedEx Schedules Arriving at EDDK
26 Schedules
Number of FedEx Schedules Departing from EDDK availible today
6 Schedules Today
Number of FedEx Schedules Arriving at EDDK availible today
6 Schedules Today
Average Landing Rate at EDDK
-132 fpm
FedEx Average Landing Rate at EDDK
0 fpm
Total Fuel Purchased at EDDK by FedEx
0.00 kgs / 0.00 lbs

Pilots Based at EDDK


Pilot ID
Pilot Name
Pilot Rank
No. of Flights
No. of Flying Hours
There are no pilots assigned to this hub!   Will you be the first?
Content